Time;durP1;ratioP1;P1;durP2;ratioP2;P2;SDS_P1;SDS_P2;PMS_P1;PMS_P2;Temp;Humidity;BMP_temperature;BMP_pressure;BME280_temperature;BME280_humidity;BME280_pressure;Samples;Min_cycle;Max_cycle;Signal;HPM_P1;HPM_P2
2022/11/07 00:00:29;;;;;;;1.90;1.20;;;;;;;24.36;nan;99475.25;5079955;28;20079;-61
2022/11/07 00:02:54;;;;;;;2.10;1.23;;;;;;;24.34;nan;99472.84;5062300;28;20748;-63
2022/11/07 00:05:20;;;;;;;1.70;1.02;;;;;;;24.37;nan;99476.88;5085074;28;20476;-61
2022/11/07 00:07:45;;;;;;;2.05;1.30;;;;;;;24.35;nan;99479.22;5089524;28;20067;-61
2022/11/07 00:10:11;;;;;;;2.00;1.13;;;;;;;24.36;nan;99473.28;5076826;28;20052;-64
2022/11/07 00:12:36;;;;;;;2.05;1.33;;;;;;;24.36;nan;99466.84;5089036;28;20090;-61
2022/11/07 00:15:03;;;;;;;1.80;1.20;;;;;;;24.35;nan;99466.06;5085386;28;20048;-64
2022/11/07 00:17:29;;;;;;;1.67;1.17;;;;;;;24.33;nan;99464.88;5089475;28;20460;-62
2022/11/07 00:19:54;;;;;;;2.08;1.10;;;;;;;24.36;nan;99472.44;5089905;28;20511;-61
2022/11/07 00:22:19;;;;;;;1.90;1.20;;;;;;;24.32;nan;99466.03;5089699;28;20126;-62
2022/11/07 00:24:45;;;;;;;2.10;1.13;;;;;;;24.33;nan;99470.44;5089772;28;20032;-60
2022/11/07 00:27:10;;;;;;;1.73;1.15;;;;;;;24.34;nan;99470.06;5089257;28;20032;-61
2022/11/07 00:29:36;;;;;;;1.90;1.20;;;;;;;24.35;nan;99482.03;5087959;28;20374;-60
2022/11/07 00:32:01;;;;;;;2.47;1.25;;;;;;;24.35;nan;99482.03;5080954;28;20441;-63
2022/11/07 00:34:28;;;;;;;2.10;1.30;;;;;;;24.33;nan;99478.84;5089607;28;20068;-63
2022/11/07 00:36:53;;;;;;;1.52;0.95;;;;;;;24.33;nan;99481.63;5077747;28;20036;-63
2022/11/07 00:39:19;;;;;;;1.60;1.02;;;;;;;24.35;nan;99484.81;5072095;28;20047;-61
2022/11/07 00:41:47;;;;;;;1.75;1.10;;;;;;;24.34;nan;99494.41;5084431;28;20033;-61
2022/11/07 00:44:12;;;;;;;1.77;1.15;;;;;;;24.34;nan;99500.81;5069894;28;20048;-61
2022/11/07 00:46:38;;;;;;;1.30;0.90;;;;;;;24.35;nan;99507.19;5075966;28;20044;-61
2022/11/07 00:49:03;;;;;;;1.73;1.00;;;;;;;24.31;nan;99504.38;5072929;28;20040;-64
2022/11/07 00:51:28;;;;;;;1.63;1.10;;;;;;;24.34;nan;99506.41;5076197;28;20446;-64
2022/11/07 00:53:54;;;;;;;1.98;1.10;;;;;;;24.34;nan;99503.59;5062211;28;20049;-61
2022/11/07 00:56:23;;;;;;;1.67;1.00;;;;;;;24.35;nan;99504.41;5073049;28;20043;-61
2022/11/07 00:58:54;;;;;;;1.58;1.00;;;;;;;24.34;nan;99503.59;5089292;28;20040;-60
2022/11/07 01:01:23;;;;;;;1.90;1.10;;;;;;;24.34;nan;99505.59;5073713;28;20044;-63
2022/11/07 01:06:35;;;;;;;1.63;0.95;;;;;;;24.34;nan;99508.38;5079311;28;20055;-61
2022/11/07 01:09:05;;;;;;;1.92;1.10;;;;;;;24.33;nan;99501.22;5085203;28;20036;-61
2022/11/07 01:11:31;;;;;;;1.40;0.90;;;;;;;24.33;nan;99509.59;5077457;28;20048;-64
2022/11/07 01:13:58;;;;;;;1.80;1.00;;;;;;;24.29;nan;99501.19;5076298;28;20934;-64
2022/11/07 01:16:25;;;;;;;1.25;0.80;;;;;;;24.33;nan;99509.59;5079056;28;20093;-64
2022/11/07 01:18:51;;;;;;;1.67;1.05;;;;;;;24.32;nan;99514.34;5086259;28;20048;-61
2022/11/07 01:21:16;;;;;;;1.60;1.00;;;;;;;24.31;nan;99511.97;5088990;28;20127;-61
2022/11/07 01:23:42;;;;;;;1.63;0.90;;;;;;;24.33;nan;99509.59;5088851;28;20389;-64
2022/11/07 01:26:10;;;;;;;1.77;1.10;;;;;;;24.32;nan;99519.16;5078335;28;20101;-63
2022/11/07 01:28:36;;;;;;;1.48;1.00;;;;;;;24.31;nan;99509.97;5080210;28;20190;-64
2022/11/07 01:31:03;;;;;;;1.30;0.88;;;;;;;24.33;nan;99509.59;5073453;28;20048;-64
2022/11/07 01:33:29;;;;;;;1.80;1.00;;;;;;;24.32;nan;99514.34;5080308;28;20122;-61
2022/11/07 01:35:54;;;;;;;1.30;0.85;;;;;;;24.32;nan;99507.97;5070713;28;20182;-61
2022/11/07 01:38:19;;;;;;;1.60;1.00;;;;;;;24.32;nan;99513.56;5079767;28;20416;-63
2022/11/07 01:44:03;;;;;;;1.30;0.90;;;;;;;24.32;nan;99516.34;5076899;28;20716;-61
2022/11/07 01:46:33;;;;;;;3.28;1.10;;;;;;;24.32;nan;99507.97;5073543;28;20113;-61
2022/11/07 01:49:22;;;;;;;1.45;0.85;;;;;;;24.31;nan;99509.16;5079689;28;20040;-61
2022/11/07 01:52:16;;;;;;;1.70;0.95;;;;;;;24.31;nan;99503.56;5075974;28;20504;-61
2022/11/07 01:54:48;;;;;;;1.20;0.80;;;;;;;24.30;nan;99505.56;5068038;28;20068;-64
2022/11/07 01:57:28;;;;;;;1.58;1.00;;;;;;;24.30;nan;99504.78;5069849;28;20044;-63
2022/11/07 01:59:56;;;;;;;4.10;1.00;;;;;;;24.31;nan;99504.38;5084605;28;20051;-61
2022/11/07 02:02:25;;;;;;;1.70;0.98;;;;;;;24.30;nan;99501.97;5088492;28;20067;-61
2022/11/07 02:04:51;;;;;;;1.38;0.80;;;;;;;24.30;nan;99497.19;5088466;28;20040;-64
2022/11/07 02:07:23;;;;;;;1.63;0.82;;;;;;;24.30;nan;99499.19;5090392;28;20048;-64
2022/11/07 02:09:54;;;;;;;2.42;1.00;;;;;;;24.31;nan;99503.56;5075732;28;20048;-64
2022/11/07 02:12:22;;;;;;;1.52;1.00;;;;;;;24.29;nan;99505.94;5077271;28;20481;-63
2022/11/07 02:14:47;;;;;;;1.60;0.90;;;;;;;24.27;nan;99497.97;5081250;28;20044;-60
2022/11/07 02:17:13;;;;;;;1.83;0.95;;;;;;;24.31;nan;99503.56;5089302;28;20128;-64
2022/11/07 02:19:46;;;;;;;2.15;0.98;;;;;;;24.31;nan;99503.56;5076610;28;20401;-63
2022/11/07 02:22:20;;;;;;;1.83;0.88;;;;;;;24.31;nan;99495.19;5077998;28;20044;-61
2022/11/07 02:24:50;;;;;;;1.80;0.85;;;;;;;24.30;nan;99499.97;5074215;28;20075;-63
2022/11/07 02:27:18;;;;;;;1.48;0.90;;;;;;;24.31;nan;99501.56;5076508;28;20123;-60
2022/11/07 02:29:49;;;;;;;2.55;1.10;;;;;;;24.33;nan;99510.38;5075633;28;20051;-64
2022/11/07 02:32:14;;;;;;;2.13;1.05;;;;;;;24.34;nan;99509.19;5089675;28;20044;-61
2022/11/07 02:34:39;;;;;;;1.35;0.90;;;;;;;24.35;nan;99498.81;5072624;28;20048;-61
2022/11/07 02:37:12;;;;;;;3.28;1.00;;;;;;;24.34;nan;99497.22;5085248;28;20067;-61
2022/11/07 02:39:37;;;;;;;1.60;1.17;;;;;;;24.34;nan;99494.41;5072562;28;20044;-64
2022/11/07 02:42:05;;;;;;;2.67;0.82;;;;;;;24.34;nan;99494.41;5081955;28;20047;-64
2022/11/07 02:44:31;;;;;;;1.67;0.90;;;;;;;24.34;nan;99497.22;5091237;28;20040;-61
2022/11/07 02:46:57;;;;;;;1.13;0.85;;;;;;;24.33;nan;99492.81;5084164;28;20412;-61
2022/11/07 02:49:23;;;;;;;1.80;1.10;;;;;;;24.34;nan;99497.22;5069888;28;20511;-61
2022/11/07 02:51:48;;;;;;;1.48;1.00;;;;;;;24.33;nan;99501.22;5080341;28;20129;-64
2022/11/07 02:54:13;;;;;;;1.30;0.90;;;;;;;24.32;nan;99494.78;5087860;28;20028;-64
2022/11/07 02:56:39;;;;;;;1.45;0.90;;;;;;;24.33;nan;99504.78;5089265;28;20048;-61
2022/11/07 02:59:04;;;;;;;1.45;0.90;;;;;;;24.33;nan;99501.22;5086240;28;20138;-64
2022/11/07 03:01:30;;;;;;;1.35;0.85;;;;;;;24.32;nan;99502.38;5091177;28;20044;-61
2022/11/07 03:03:55;;;;;;;1.27;0.82;;;;;;;24.32;nan;99494.78;5090911;28;20124;-61
2022/11/07 03:06:23;;;;;;;1.33;0.88;;;;;;;24.32;nan;99494.00;5090727;28;20527;-65
2022/11/07 03:08:49;;;;;;;1.70;0.90;;;;;;;24.31;nan;99490.41;5087116;28;20040;-65
2022/11/07 03:11:18;;;;;;;1.73;1.08;;;;;;;24.31;nan;99492.41;5071192;28;20047;-59
2022/11/07 03:13:47;;;;;;;1.65;1.00;;;;;;;24.30;nan;99480.41;5051696;28;20052;-63
2022/11/07 03:16:12;;;;;;;2.40;0.90;;;;;;;24.29;nan;99486.38;5083669;28;20509;-61
2022/11/07 03:18:38;;;;;;;1.38;1.00;;;;;;;24.31;nan;99487.59;5082363;28;20051;-61
2022/11/07 03:21:04;;;;;;;1.60;0.80;;;;;;;24.31;nan;99492.41;5090561;28;20113;-64
2022/11/07 03:23:30;;;;;;;1.20;0.85;;;;;;;24.30;nan;99497.19;5077143;28;20053;-63
2022/11/07 03:25:56;;;;;;;2.42;1.13;;;;;;;24.30;nan;99496.38;5069002;28;20040;-64
2022/11/07 03:28:23;;;;;;;1.38;0.82;;;;;;;24.30;nan;99499.97;5077750;28;20047;-61
2022/11/07 03:30:49;;;;;;;2.33;1.05;;;;;;;24.31;nan;99503.56;5077288;28;20036;-64
2022/11/07 03:33:14;;;;;;;1.33;0.90;;;;;;;24.30;nan;99507.56;5089124;28;20050;-64
2022/11/07 03:35:40;;;;;;;1.70;1.00;;;;;;;24.30;nan;99507.56;5085340;28;20108;-63
2022/11/07 03:38:05;;;;;;;1.30;0.90;;;;;;;24.30;nan;99513.16;5068086;28;20051;-64
2022/11/07 03:40:30;;;;;;;1.52;0.90;;;;;;;24.29;nan;99512.38;5090600;28;20044;-65
2022/11/07 03:42:56;;;;;;;1.23;0.80;;;;;;;24.27;nan;99505.56;5081674;28;20677;-59
2022/11/07 03:45:21;;;;;;;1.30;0.90;;;;;;;24.28;nan;99509.94;5064113;28;20036;-62
2022/11/07 03:47:47;;;;;;;1.63;1.00;;;;;;;24.29;nan;99514.34;5087096;28;20044;-64
2022/11/07 03:50:16;;;;;;;1.33;0.90;;;;;;;24.27;nan;99517.53;5084632;28;20452;-60
2022/11/07 03:52:41;;;;;;;1.30;0.90;;;;;;;24.28;nan;99521.13;5078203;28;20051;-63
2022/11/07 03:55:08;;;;;;;1.60;0.98;;;;;;;24.28;nan;99524.72;5089834;28;20044;-60
2022/11/07 03:57:33;;;;;;;1.35;0.90;;;;;;;24.27;nan;99520.31;5090052;28;20458;-63
2022/11/07 04:00:00;;;;;;;1.92;1.10;;;;;;;24.28;nan;99523.91;5083233;28;20036;-63
2022/11/07 04:02:25;;;;;;;1.88;0.90;;;;;;;24.27;nan;99533.50;5078749;28;20106;-63
2022/11/07 04:04:50;;;;;;;1.33;0.90;;;;;;;24.27;nan;99525.91;5061696;28;20461;-60
2022/11/07 04:07:16;;;;;;;1.27;0.90;;;;;;;24.27;nan;99528.72;5071422;28;20110;-60
2022/11/07 04:09:41;;;;;;;1.70;1.02;;;;;;;24.24;nan;99521.13;5063670;28;20044;-60
2022/11/07 04:17:36;;;;;;;1.60;1.00;;;;;;;24.26;nan;99532.72;5076546;28;20051;-60
2022/11/07 04:20:02;;;;;;;1.63;1.00;;;;;;;24.25;nan;99533.91;5076599;28;20037;-63
2022/11/07 04:22:27;;;;;;;1.13;0.80;;;;;;;24.26;nan;99537.50;5084863;28;20044;-62
2022/11/07 04:24:53;;;;;;;1.05;0.70;;;;;;;24.27;nan;99544.69;5089871;28;20044;-64
2022/11/07 04:30:18;;;;;;;1.13;0.73;;;;;;;24.25;nan;99544.28;5074380;28;20067;-63
2022/11/07 04:32:48;;;;;;;2.83;1.00;;;;;;;24.24;nan;99551.88;5069743;28;20055;-61
2022/11/07 04:35:15;;;;;;;1.30;0.80;;;;;;;24.24;nan;99548.28;5069694;28;20135;-63
2022/11/07 04:37:41;;;;;;;1.30;0.90;;;;;;;24.25;nan;99555.47;5079888;28;20044;-62
2022/11/07 04:40:08;;;;;;;1.58;0.90;;;;;;;24.26;nan;99559.88;5076615;28;20056;-60
2022/11/07 04:42:34;;;;;;;1.42;0.90;;;;;;;24.25;nan;99555.47;5075990;28;20071;-61
2022/11/07 04:44:59;;;;;;;1.83;0.95;;;;;;;24.25;nan;99550.69;5079887;28;20049;-63
2022/11/07 04:47:25;;;;;;;1.60;0.93;;;;;;;24.24;nan;99546.28;5089739;28;20047;-63
2022/11/07 04:49:50;;;;;;;1.50;0.93;;;;;;;24.25;nan;99552.66;5057072;28;20118;-61
2022/11/07 04:52:15;;;;;;;1.42;0.90;;;;;;;24.24;nan;99545.50;5075444;28;20550;-61
2022/11/07 04:54:41;;;;;;;1.27;0.82;;;;;;;24.24;nan;99548.28;5077980;28;20079;-64
2022/11/07 04:57:06;;;;;;;1.75;1.00;;;;;;;24.23;nan;99553.06;5067672;28;20037;-62
2022/11/07 04:59:32;;;;;;;1.30;0.80;;;;;;;24.25;nan;99563.84;5076738;28;20040;-62
2022/11/07 05:01:57;;;;;;;1.25;0.82;;;;;;;24.25;nan;99558.25;5082623;28;20123;-61
2022/11/07 05:04:22;;;;;;;1.80;1.02;;;;;;;24.24;nan;99563.06;5083895;28;20072;-63
2022/11/07 05:06:48;;;;;;;2.25;1.10;;;;;;;24.25;nan;99564.66;5067485;28;20044;-61
2022/11/07 05:09:16;;;;;;;1.63;1.00;;;;;;;24.24;nan;99553.88;5067198;28;20435;-63
2022/11/07 05:11:45;;;;;;;1.35;0.90;;;;;;;24.25;nan;99555.47;5072833;28;20056;-61
2022/11/07 05:14:11;;;;;;;1.58;1.00;;;;;;;24.23;nan;99552.28;5074924;28;20045;-64
2022/11/07 05:16:38;;;;;;;1.85;1.00;;;;;;;24.25;nan;99561.06;5078455;28;20040;-61
2022/11/07 05:19:04;;;;;;;1.45;0.95;;;;;;;24.26;nan;99568.25;5080322;28;20051;-63
2022/11/07 05:21:30;;;;;;;1.45;0.93;;;;;;;24.23;nan;99571.84;5064948;28;20059;-61
2022/11/07 05:23:55;;;;;;;1.52;1.00;;;;;;;24.24;nan;99568.66;5088559;28;20032;-61
2022/11/07 05:26:21;;;;;;;1.17;0.82;;;;;;;24.25;nan;99563.84;5088476;28;20437;-63
2022/11/07 05:28:46;;;;;;;1.20;0.73;;;;;;;24.24;nan;99556.66;5088654;28;20169;-62
2022/11/07 05:31:15;;;;;;;1.60;0.98;;;;;;;24.24;nan;99562.25;5076159;28;20041;-63
2022/11/07 05:33:41;;;;;;;1.23;0.80;;;;;;;24.24;nan;99567.84;5073175;28;20131;-61
2022/11/07 05:36:11;;;;;;;1.63;0.98;;;;;;;24.24;nan;99568.66;5073926;28;20123;-62
2022/11/07 05:38:39;;;;;;;1.52;0.90;;;;;;;24.23;nan;99566.25;5075785;28;20071;-63
2022/11/07 05:41:04;;;;;;;3.25;0.80;;;;;;;24.21;nan;99557.44;5071233;28;20060;-63
2022/11/07 05:43:30;;;;;;;1.65;0.88;;;;;;;24.23;nan;99574.63;5089022;28;20609;-60
2022/11/07 05:45:59;;;;;;;1.50;0.90;;;;;;;24.23;nan;99581.03;5092414;28;20515;-63
2022/11/07 05:48:26;;;;;;;1.20;0.82;;;;;;;24.22;nan;99576.63;5092273;28;20439;-63
2022/11/07 05:50:51;;;;;;;1.30;0.73;;;;;;;24.23;nan;99577.44;5087298;28;20048;-60
2022/11/07 05:53:19;;;;;;;1.33;0.80;;;;;;;24.23;nan;99591.41;5079209;28;20578;-63
2022/11/07 05:55:45;;;;;;;1.00;0.70;;;;;;;24.23;nan;99585.81;5078197;28;20063;-60
2022/11/07 05:58:12;;;;;;;1.42;0.80;;;;;;;24.24;nan;99587.41;5075360;28;20040;-63
2022/11/07 06:00:38;;;;;;;0.85;0.60;;;;;;;24.24;nan;99584.63;5090361;28;20044;-63
2022/11/07 06:03:04;;;;;;;1.55;0.90;;;;;;;24.23;nan;99585.81;5075495;28;20047;-61
2022/11/07 06:05:31;;;;;;;1.02;0.70;;;;;;;24.23;nan;99586.63;5072801;28;20040;-60
2022/11/07 06:07:56;;;;;;;1.17;0.80;;;;;;;24.22;nan;99584.19;5091614;28;20056;-60
2022/11/07 06:10:23;;;;;;;1.35;0.90;;;;;;;24.24;nan;99584.63;5088543;28;20086;-63
2022/11/07 06:13:00;;;;;;;2.75;0.70;;;;;;;24.26;nan;99585.03;5085578;28;20071;-61
2022/11/07 06:15:27;;;;;;;1.38;0.80;;;;;;;24.27;nan;99583.81;5087181;28;20543;-64
2022/11/07 06:17:54;;;;;;;1.40;0.82;;;;;;;24.28;nan;99585.41;5089023;28;20052;-62
2022/11/07 06:20:20;;;;;;;1.00;0.77;;;;;;;24.29;nan;99587.00;5091623;28;20048;-62
2022/11/07 06:22:46;;;;;;;1.15;0.80;;;;;;;24.29;nan;99590.63;5085922;28;20105;-60
2022/11/07 06:25:11;;;;;;;1.60;0.95;;;;;;;24.29;nan;99596.22;5090093;28;20469;-60
2022/11/07 06:27:36;;;;;;;1.40;0.80;;;;;;;24.31;nan;99599.41;5072119;28;20052;-62
2022/11/07 06:30:03;;;;;;;1.10;0.70;;;;;;;24.31;nan;99593.03;5087545;28;20404;-59
2022/11/07 06:32:29;;;;;;;1.73;0.90;;;;;;;24.33;nan;99599.06;5090964;28;20044;-63
2022/11/07 06:34:55;;;;;;;1.55;0.90;;;;;;;24.32;nan;99589.84;5079082;28;20872;-60
2022/11/07 06:37:21;;;;;;;1.50;0.90;;;;;;;24.34;nan;99592.25;5069108;28;20052;-63
2022/11/07 06:39:46;;;;;;;1.38;0.88;;;;;;;24.34;nan;99589.47;5048050;28;20413;-60
2022/11/07 06:42:11;;;;;;;1.05;0.70;;;;;;;24.39;nan;99600.28;5091239;28;20412;-61
2022/11/07 06:44:37;;;;;;;1.40;0.80;;;;;;;24.40;nan;99613.06;5073729;28;20040;-64
2022/11/07 06:47:02;;;;;;;1.73;0.93;;;;;;;24.41;nan;99609.06;5091362;28;20044;-64
2022/11/07 06:49:27;;;;;;;1.08;0.73;;;;;;;24.41;nan;99609.84;5090945;28;20044;-64
2022/11/07 06:51:53;;;;;;;1.20;0.80;;;;;;;24.41;nan;99620.25;5073188;28;20117;-64
2022/11/07 06:54:18;;;;;;;32.67;1.88;;;;;;;24.36;nan;99623.41;5081326;28;20048;-69
2022/11/07 06:56:44;;;;;;;25.48;3.13;;;;;;;24.39;nan;99611.44;5087681;28;20056;-66
2022/11/07 06:59:09;;;;;;;16.88;2.00;;;;;;;24.42;nan;99614.25;5071670;28;20048;-60
2022/11/07 07:01:34;;;;;;;44.40;3.78;;;;;;;24.40;nan;99610.25;5069083;28;20415;-60
2022/11/07 07:04:00;;;;;;;28.08;2.28;;;;;;;24.43;nan;99613.06;5081016;28;20039;-66
2022/11/07 07:06:26;;;;;;;22.52;1.92;;;;;;;24.45;nan;99621.06;5079668;28;20044;-60
2022/11/07 07:08:51;;;;;;;20.33;2.13;;;;;;;24.45;nan;99615.47;5089223;28;20483;-60
2022/11/07 07:11:17;;;;;;;28.80;2.33;;;;;;;24.45;nan;99615.47;5086678;28;20059;-66
2022/11/07 07:13:42;;;;;;;19.42;2.08;;;;;;;24.44;nan;99616.66;5090878;28;20043;-66
2022/11/07 07:16:09;;;;;;;24.35;2.00;;;;;;;24.45;nan;99623.88;5090463;28;20044;-60
2022/11/07 07:18:35;;;;;;;13.10;1.70;;;;;;;24.41;nan;99620.25;5076982;28;20039;-66
2022/11/07 07:21:10;;;;;;;13.25;1.92;;;;;;;24.41;nan;99626.63;5080437;28;20040;-60
2022/11/07 07:23:37;;;;;;;16.42;1.80;;;;;;;24.40;nan;99627.03;5086668;28;20040;-60
2022/11/07 07:26:05;;;;;;;15.27;1.70;;;;;;;24.38;nan;99635.81;5090570;28;20040;-66
2022/11/07 07:28:30;;;;;;;6.60;1.40;;;;;;;24.38;nan;99643.41;5078841;28;20040;-66
2022/11/07 07:31:09;;;;;;;11.50;1.52;;;;;;;24.37;nan;99639.81;5084703;28;20060;-56
2022/11/07 07:33:35;;;;;;;8.20;1.40;;;;;;;24.40;nan;99638.22;5079274;28;20423;-58
2022/11/07 07:36:01;;;;;;;10.15;1.50;;;;;;;24.41;nan;99643.41;5074240;28;20048;-65
2022/11/07 07:38:27;;;;;;;9.38;1.35;;;;;;;24.44;nan;99647.44;5075596;28;20048;-64
2022/11/07 07:40:52;;;;;;;7.15;1.38;;;;;;;24.43;nan;99643.84;5085306;28;20052;-56
2022/11/07 07:43:19;;;;;;;7.07;1.25;;;;;;;24.47;nan;99649.41;5077467;28;20348;-65
2022/11/07 07:45:44;;;;;;;8.85;1.55;;;;;;;24.49;nan;99649.81;5074127;28;20123;-57
2022/11/07 07:48:10;;;;;;;6.30;2.40;;;;;;;24.46;nan;99653.41;5071662;28;20174;-56
2022/11/07 07:50:35;;;;;;;5.25;2.22;;;;;;;24.30;nan;99652.94;5079346;28;20181;-56
2022/11/07 07:53:01;;;;;;;8.35;1.83;;;;;;;24.34;nan;99659.34;5080171;28;20048;-56
2022/11/07 07:55:26;;;;;;;5.88;2.08;;;;;;;24.39;nan;99653.41;5083012;28;20051;-57
2022/11/07 07:57:53;;;;;;;3.15;1.63;;;;;;;24.46;nan;99659.00;5072597;28;20536;-66
2022/11/07 08:00:18;;;;;;;3.75;1.30;;;;;;;24.50;nan;99640.22;5071950;28;20044;-57
2022/11/07 08:02:44;;;;;;;3.58;1.55;;;;;;;24.58;nan;99643.88;5067630;28;20059;-56
2022/11/07 08:05:13;;;;;;;3.42;1.70;;;;;;;24.63;nan;99647.06;5063379;28;20082;-59
2022/11/07 08:07:45;;;;;;;6.55;2.05;;;;;;;24.69;nan;99645.50;5062879;28;20044;-57
2022/11/07 08:10:11;;;;;;;4.63;1.55;;;;;;;24.72;nan;99643.91;5070284;28;20105;-56
2022/11/07 08:12:42;;;;;;;3.58;1.48;;;;;;;24.75;nan;99642.31;5068565;28;20435;-66
2022/11/07 08:15:12;;;;;;;4.57;1.70;;;;;;;24.81;nan;99649.13;5045959;28;21407;-56
2022/11/07 08:17:39;;;;;;;4.50;1.63;;;;;;;24.82;nan;99645.94;5048729;28;20053;-56
2022/11/07 08:20:06;;;;;;;2.80;1.50;;;;;;;24.83;nan;99652.31;5047708;28;20049;-65
2022/11/07 08:22:32;;;;;;;3.60;1.50;;;;;;;24.89;nan;99656.34;5047551;28;20063;-57
2022/11/07 08:24:57;;;;;;;3.72;1.65;;;;;;;24.94;nan;99656.75;5047731;28;20048;-69
2022/11/07 08:27:22;;;;;;;3.20;1.83;;;;;;;24.96;nan;99642.34;5047335;28;20051;-73
2022/11/07 08:29:48;;;;;;;2.72;1.60;;;;;;;25.01;nan;99647.56;5049427;28;20123;-69
2022/11/07 08:32:14;;;;;;;3.05;1.35;;;;;;;25.06;nan;99651.97;5047506;28;20048;-57
2022/11/07 08:34:39;;;;;;;3.00;1.50;;;;;;;25.09;nan;99645.59;5048283;28;20053;-57
2022/11/07 08:37:05;;;;;;;2.88;1.13;;;;;;;25.11;nan;99641.19;5045027;28;20101;-58
2022/11/07 08:39:31;;;;;;;3.83;1.45;;;;;;;25.17;nan;99641.59;5049465;28;20052;-57
2022/11/07 08:41:56;;;;;;;4.60;1.50;;;;;;;25.16;nan;99637.22;5049568;28;20627;-58
2022/11/07 08:44:22;;;;;;;3.38;1.42;;;;;;;25.21;nan;99632.00;5045712;28;20045;-57
2022/11/07 08:46:47;;;;;;;3.88;1.50;;;;;;;25.25;nan;99640.41;5052388;28;20044;-58
2022/11/07 08:49:13;;;;;;;8.30;1.70;;;;;;;25.31;nan;99640.81;5042309;28;20045;-58
2022/11/07 08:51:38;;;;;;;4.22;1.60;;;;;;;25.35;nan;99638.81;5051930;28;20048;-57
2022/11/07 08:54:03;;;;;;;4.65;1.50;;;;;;;25.41;nan;99637.19;5051520;28;20051;-69
2022/11/07 08:56:29;;;;;;;3.28;1.42;;;;;;;25.42;nan;99636.78;5048724;28;20139;-58
2022/11/07 08:58:55;;;;;;;2.75;1.52;;;;;;;25.48;nan;99634.41;5043387;28;20519;-57
2022/11/07 09:01:20;;;;;;;4.30;1.45;;;;;;;25.48;nan;99634.41;5047888;28;20123;-57
2022/11/07 09:03:46;;;;;;;5.63;1.38;;;;;;;25.50;nan;99630.00;5048708;28;20070;-71
2022/11/07 09:06:11;;;;;;;4.93;1.40;;;;;;;25.51;nan;99636.41;5046049;28;20565;-72
2022/11/07 09:08:37;;;;;;;2.70;1.20;;;;;;;25.52;nan;99629.59;5047286;28;20063;-66
2022/11/07 09:11:04;;;;;;;2.65;1.30;;;;;;;25.51;nan;99626.00;5048659;28;20045;-57
2022/11/07 09:13:31;;;;;;;4.90;1.30;;;;;;;25.50;nan;99621.59;5051102;28;20053;-68
2022/11/07 09:15:58;;;;;;;3.13;1.40;;;;;;;25.51;nan;99617.59;5048289;28;20334;-66
2022/11/07 09:18:24;;;;;;;4.47;1.50;;;;;;;25.53;nan;99618.00;5042477;28;20041;-57
2022/11/07 09:20:50;;;;;;;1.90;1.10;;;;;;;25.56;nan;99615.56;5047494;28;20048;-56
2022/11/07 09:23:15;;;;;;;2.90;1.10;;;;;;;25.58;nan;99616.00;5049646;28;20098;-56
2022/11/07 09:25:42;;;;;;;3.05;1.27;;;;;;;25.61;nan;99613.19;5045670;28;20513;-65
2022/11/07 09:28:08;;;;;;;4.60;1.50;;;;;;;25.64;nan;99603.94;5046999;28;20568;-66
2022/11/07 09:30:37;;;;;;;5.63;1.15;;;;;;;25.66;nan;99604.38;5048926;28;20056;-56
2022/11/07 09:33:02;;;;;;;2.65;1.40;;;;;;;25.66;nan;99607.16;5057841;28;20734;-57
2022/11/07 09:35:28;;;;;;;3.10;1.20;;;;;;;25.69;nan;99606.34;5048147;28;20082;-65
2022/11/07 09:37:54;;;;;;;2.13;1.23;;;;;;;25.71;nan;99601.13;5043944;28;20048;-56
2022/11/07 09:40:39;;;;;;;1.77;1.10;;;;;;;25.74;nan;99600.38;5044498;28;20041;-56
2022/11/07 09:43:10;;;;;;;2.38;1.30;;;;;;;25.76;nan;99597.97;5047047;28;20049;-57
2022/11/07 09:45:53;;;;;;;3.17;1.27;;;;;;;25.77;nan;99601.56;5047780;28;20052;-56
2022/11/07 09:48:23;;;;;;;2.70;1.30;;;;;;;25.81;nan;99598.75;5045832;28;20079;-65
2022/11/07 09:50:50;;;;;;;2.30;1.25;;;;;;;25.82;nan;99592.75;5045526;28;20053;-64
2022/11/07 09:53:30;;;;;;;2.10;1.30;;;;;;;25.86;nan;99590.75;5048662;28;20423;-65
2022/11/07 09:55:59;;;;;;;2.28;1.30;;;;;;;25.87;nan;99586.75;5044626;28;20568;-56
2022/11/07 09:58:28;;;;;;;2.30;1.30;;;;;;;25.88;nan;99587.53;5041146;28;20068;-57
2022/11/07 10:01:00;;;;;;;1.70;1.08;;;;;;;25.89;nan;99589.13;5040973;28;20055;-56
2022/11/07 10:03:25;;;;;;;5.45;1.27;;;;;;;25.92;nan;99591.09;5037492;28;20049;-66
2022/11/07 10:06:18;;;;;;;2.20;1.30;;;;;;;25.94;nan;99586.72;5044299;28;20102;-65
2022/11/07 10:08:44;;;;;;;;;;;;;;;26.00;nan;99578.66;5032537;28;20504;-66
2022/11/07 10:11:49;;;;;;;2.43;1.30;;;;;;;26.00;nan;99587.06;5037182;28;19993;-66
2022/11/07 10:14:19;;;;;;;2.92;1.80;;;;;;;26.00;nan;99578.66;4960752;28;20328;-65
2022/11/07 10:16:57;;;;;;;3.67;1.83;;;;;;;26.01;nan;99574.69;4966098;28;20058;-57
2022/11/07 10:19:25;;;;;;;2.97;1.80;;;;;;;26.02;nan;99579.88;4962905;28;20129;-58
2022/11/07 10:21:56;;;;;;;2.88;1.80;;;;;;;26.05;nan;99576.25;4962822;28;20121;-65
2022/11/07 10:24:36;;;;;;;2.75;1.80;;;;;;;26.08;nan;99569.03;4963830;28;20055;-57
2022/11/07 10:27:06;;;;;;;3.25;1.90;;;;;;;26.09;nan;99559.41;4961864;28;20101;-57
2022/11/07 10:29:46;;;;;;;2.95;1.80;;;;;;;26.12;nan;99564.19;4971457;28;20077;-57
2022/11/07 10:32:27;;;;;;;2.63;1.58;;;;;;;26.15;nan;99563.41;4972697;28;20058;-57
2022/11/07 10:35:23;;;;;;;3.03;1.70;;;;;;;26.17;nan;99560.19;4966115;28;20232;-57
2022/11/07 10:38:00;;;;;;;2.83;1.80;;;;;;;26.17;nan;99554.56;4960188;28;20521;-57
2022/11/07 10:40:39;;;;;;;2.50;1.60;;;;;;;26.20;nan;99551.75;4966222;28;20045;-65
2022/11/07 10:43:13;;;;;;;2.50;1.60;;;;;;;26.22;nan;99546.53;4967839;28;21014;-65
2022/11/07 10:45:39;;;;;;;2.42;1.55;;;;;;;26.25;nan;99540.09;4964666;28;20054;-65
2022/11/07 10:48:05;;;;;;;3.88;1.60;;;;;;;26.26;nan;99535.28;4982138;28;20508;-57
2022/11/07 10:50:31;;;;;;;3.75;1.45;;;;;;;26.27;nan;99532.06;5045732;28;20080;-57
2022/11/07 10:53:04;;;;;;;2.60;1.40;;;;;;;26.30;nan;99531.28;5042409;28;20110;-65
2022/11/07 10:55:42;;;;;;;2.88;1.40;;;;;;;26.31;nan;99520.84;5044961;28;20044;-57
2022/11/07 10:58:15;;;;;;;2.58;1.55;;;;;;;26.34;nan;99520.81;5045249;28;20067;-58
2022/11/07 11:00:42;;;;;;;3.53;1.50;;;;;;;26.37;nan;99515.63;5042529;28;20056;-57
2022/11/07 11:03:27;;;;;;;2.15;1.20;;;;;;;26.39;nan;99504.78;5046585;28;20111;-57
2022/11/07 11:05:54;;;;;;;1.83;1.13;;;;;;;26.42;nan;99501.16;5041581;28;20053;-58
2022/11/07 11:08:30;;;;;;;2.33;1.40;;;;;;;26.43;nan;99497.16;5043389;28;20037;-58
2022/11/07 11:10:56;;;;;;;2.40;1.30;;;;;;;26.45;nan;99494.75;5051151;28;20068;-58
2022/11/07 11:13:29;;;;;;;1.95;1.25;;;;;;;26.47;nan;99489.53;5042781;28;21078;-57
2022/11/07 11:15:57;;;;;;;1.95;1.20;;;;;;;26.48;nan;99491.91;5039221;28;20068;-58
2022/11/07 11:18:23;;;;;;;2.20;1.20;;;;;;;26.50;nan;99492.28;5043301;28;20469;-58
2022/11/07 11:21:00;;;;;;;2.55;1.20;;;;;;;26.50;nan;99477.47;5043459;28;20102;-57
2022/11/07 11:23:30;;;;;;;2.15;1.20;;;;;;;26.51;nan;99470.66;5040954;28;20049;-57
2022/11/07 11:26:01;;;;;;;3.55;1.42;;;;;;;26.56;nan;99471.00;5044778;28;20064;-57
2022/11/07 11:28:29;;;;;;;2.95;1.30;;;;;;;26.58;nan;99459.38;5044293;28;20044;-57
2022/11/07 11:31:05;;;;;;;2.40;1.33;;;;;;;26.58;nan;99456.59;5045293;28;20416;-57
2022/11/07 11:33:53;;;;;;;6.47;1.60;;;;;;;26.60;nan;99456.97;5055913;28;20048;-66
2022/11/07 11:36:25;;;;;;;1.80;1.20;;;;;;;26.64;nan;99459.72;5072262;28;20079;-56
2022/11/07 11:38:53;;;;;;;2.50;1.48;;;;;;;26.65;nan;99448.09;5058068;28;20052;-56
2022/11/07 11:41:33;;;;;;;1.80;1.10;;;;;;;26.67;nan;99451.28;5062051;28;20068;-56
2022/11/07 11:44:16;;;;;;;2.10;1.20;;;;;;;26.68;nan;99444.47;5057107;28;20059;-66
2022/11/07 11:47:03;;;;;;;2.33;1.17;;;;;;;26.71;nan;99440.00;5061648;28;20041;-58
2022/11/07 11:49:49;;;;;;;2.33;1.23;;;;;;;26.73;nan;99438.41;5053847;28;21068;-68
2022/11/07 11:52:26;;;;;;;2.20;1.30;;;;;;;26.75;nan;99432.38;5057439;28;20573;-66
2022/11/07 11:54:56;;;;;;;2.17;1.05;;;;;;;26.76;nan;99426.34;5055130;28;20579;-67
2022/11/07 11:57:32;;;;;;;3.17;1.23;;;;;;;26.77;nan;99429.94;5054850;28;20458;-57
2022/11/07 12:00:03;;;;;;;4.45;1.15;;;;;;;26.79;nan;99424.69;5054079;28;20037;-57
2022/11/07 12:02:46;;;;;;;2.75;1.20;;;;;;;26.79;nan;99421.91;5058038;28;20098;-56
2022/11/07 12:05:26;;;;;;;6.90;1.40;;;;;;;26.81;nan;99414.69;5059263;28;20057;-57
2022/11/07 12:07:55;;;;;;;1.90;1.10;;;;;;;26.83;nan;99409.44;5059197;28;20051;-58
2022/11/07 12:10:27;;;;;;;3.17;1.23;;;;;;;26.85;nan;99407.00;5062077;28;20078;-74